Terminal Aerodrome Forecast
Issued by NWS Key West, FL

Current Version | Previous Version | Text Only | Print | Product List | Glossary On
Versions: 1 2 3 4 5 6 7 8 9 10 11 12 13 14 15 16 17 18 19 20
000
FTUS42 KKEY 191120
TAFEYW
TAF
KEYW 191120Z 1912/2012 04003KT P6SM SKC
     FM191500 10007KT P6SM FEW035=

USA.gov is the U.S. government's official web portal to all federal, state and local government web resources and services.